KGYL

Details ICAO KGYL
Name GLENCOE MUNI
Region United States
Timezone America/Chicago (UTC-5.0)
Plans Departing 0
Arriving 0
Stats Elevation 992 ft / 302 m (AMSL)
Location 44.756043° -94.081210°
Runways 1
Magnetic Variation 0.865° E
Sunrise 2018-05-26 10:39:06 UTC / 2018-05-26 05:39:06 Local
Sunset 2018-05-27 01:50:34 UTC / 2018-05-26 20:50:34 Local
Advertisement - Login to hide

Runways

ID Width Length Bearing (true) Bearing (mag) Surface Threshold Offset Overrun Length
13 75 ft / 23 m 3,296 ft / 1,005 m 130.94° 130.08° Asphalt 0 ft / 0 m 0 ft / 0 m
31 75 ft / 23 m 3,296 ft / 1,005 m 310.95° 310.09° Asphalt 0 ft / 0 m 0 ft / 0 m

Map

Weather


0- 5 10 15 20 25 30 35+ Temperature / ° C

Clouds and Precipitation
Forecast for 2018-05-26 18:00 UTC. Updated 4 minutes ago

Ground ~20,000 ft ~40,000 ft Winds

METAR

KGYL 261715Z AUTO 28007KT 10SM CLR 31/18 A2973 RMK AO2 T03070181

TAF

Not found

Frequencies

Unicom 122.80 MHz CTAF/UNICOM
Approach 125.00 MHz MINNEAPOLIS APP/DEP
Warning: Do not use this data for real-world aviation or navigation. No guarantee of current accuracy is given.